createdAt,value
2019-06-26T00:00:02.629Z,4.55
2019-06-26T00:02:28.880Z,4.15
2019-06-26T00:04:55.261Z,5.37
2019-06-26T00:07:21.621Z,4.37
2019-06-26T00:09:47.903Z,3.65
2019-06-26T00:12:14.321Z,3.50
2019-06-26T00:14:40.890Z,5.35
2019-06-26T00:17:07.247Z,3.40
2019-06-26T00:19:33.735Z,3.50
2019-06-26T00:22:00.234Z,4.25
2019-06-26T00:24:26.585Z,4.42
2019-06-26T00:26:52.873Z,3.98
2019-06-26T00:29:19.230Z,3.27
2019-06-26T00:31:45.697Z,4.37
2019-06-26T00:34:12.065Z,4.65
2019-06-26T00:36:38.328Z,4.17
2019-06-26T00:39:06.012Z,5.00
2019-06-26T00:41:32.380Z,3.90
2019-06-26T00:43:58.626Z,5.35
2019-06-26T00:46:24.924Z,6.50
2019-06-26T00:48:51.241Z,3.90
2019-06-26T00:51:17.967Z,4.67
2019-06-26T00:53:44.317Z,4.87
2019-06-26T00:56:10.776Z,3.60
2019-06-26T00:58:37.134Z,4.53
2019-06-26T01:01:03.382Z,3.45
2019-06-26T01:03:29.746Z,2.98
2019-06-26T01:05:56.485Z,6.72
2019-06-26T01:08:22.781Z,5.25
2019-06-26T01:10:49.221Z,4.25
2019-06-26T01:13:15.610Z,3.58
2019-06-26T01:15:41.966Z,4.12
2019-06-26T01:18:08.437Z,5.08
2019-06-26T01:20:35.486Z,3.33
2019-06-26T01:23:01.749Z,3.65
2019-06-26T01:25:28.275Z,4.62
2019-06-26T01:27:54.722Z,4.22
2019-06-26T01:30:22.486Z,3.65
2019-06-26T01:32:48.934Z,3.85
2019-06-26T01:35:15.386Z,5.90
2019-06-26T01:37:41.860Z,4.53
2019-06-26T01:40:09.560Z,4.00
2019-06-26T01:42:35.852Z,3.08
2019-06-26T01:45:03.957Z,4.12
2019-06-26T01:47:30.510Z,3.58
2019-06-26T01:49:56.725Z,3.47
2019-06-26T01:52:23.189Z,4.33
2019-06-26T01:54:49.513Z,3.83
2019-06-26T01:57:15.959Z,3.95
2019-06-26T01:59:42.406Z,4.10
2019-06-26T02:02:08.749Z,4.15
2019-06-26T02:04:34.961Z,4.75
2019-06-26T02:07:01.335Z,4.50
2019-06-26T02:09:27.991Z,3.47
2019-06-26T02:11:54.418Z,3.62
2019-06-26T02:14:30.579Z,5.00
2019-06-26T02:16:49.058Z,3.90
2019-06-26T02:19:17.215Z,5.58
2019-06-26T02:21:43.583Z,3.52
2019-06-26T02:24:09.949Z,5.15
2019-06-26T02:26:36.302Z,3.92
2019-06-26T02:29:02.763Z,4.55
2019-06-26T02:31:29.006Z,4.03
2019-06-26T02:33:55.378Z,5.03
2019-06-26T02:36:21.923Z,3.22
2019-06-26T02:38:48.407Z,3.98
2019-06-26T02:41:14.823Z,3.87
2019-06-26T02:43:41.618Z,3.15
2019-06-26T02:46:07.876Z,3.58
2019-06-26T02:48:34.133Z,4.40
2019-06-26T02:51:00.478Z,4.62
2019-06-26T02:53:27.239Z,3.95
2019-06-26T02:55:53.744Z,3.50
2019-06-26T02:58:20.086Z,3.70
2019-06-26T03:00:46.393Z,3.65
2019-06-26T03:03:12.883Z,5.17
2019-06-26T03:05:39.254Z,3.67
2019-06-26T03:08:05.697Z,3.35
2019-06-26T03:10:32.054Z,3.80
2019-06-26T03:12:58.616Z,3.20
2019-06-26T03:15:25.099Z,4.80
2019-06-26T03:17:55.724Z,4.58
2019-06-26T03:20:23.208Z,3.95
2019-06-26T03:22:49.566Z,3.95
2019-06-26T03:25:15.941Z,5.47
2019-06-26T03:27:42.193Z,3.75
2019-06-26T03:30:08.883Z,3.47
2019-06-26T03:32:35.261Z,4.55
2019-06-26T03:35:01.752Z,3.70
2019-06-26T03:37:27.977Z,3.92
2019-06-26T03:39:54.467Z,4.20
2019-06-26T03:42:21.511Z,4.85
2019-06-26T03:44:47.765Z,4.12
2019-06-26T03:47:14.265Z,3.92
2019-06-26T03:49:40.532Z,5.60
2019-06-26T03:52:06.888Z,4.10
2019-06-26T03:54:33.361Z,5.20
2019-06-26T03:56:59.731Z,4.87
2019-06-26T03:59:25.995Z,4.90
2019-06-26T04:01:52.288Z,3.00
2019-06-26T04:04:18.732Z,3.75
2019-06-26T04:06:44.946Z,2.80
2019-06-26T04:09:11.309Z,4.45
2019-06-26T04:11:37.555Z,3.27
2019-06-26T04:14:04.013Z,4.72
2019-06-26T04:16:30.373Z,3.37
2019-06-26T04:18:56.703Z,4.05
2019-06-26T04:21:23.235Z,4.58
2019-06-26T04:23:49.489Z,6.17
2019-06-26T04:26:15.872Z,4.87
2019-06-26T04:28:42.166Z,3.85
2019-06-26T04:31:08.527Z,4.10
2019-06-26T04:33:34.942Z,4.12
2019-06-26T04:36:01.318Z,5.92
2019-06-26T04:38:27.562Z,3.90
2019-06-26T04:40:53.802Z,5.92
2019-06-26T04:43:20.289Z,4.30
2019-06-26T04:45:57.741Z,4.80
2019-06-26T04:48:14.709Z,5.47
2019-06-26T04:50:41.085Z,4.03
2019-06-26T04:53:07.450Z,6.15
2019-06-26T04:55:34.115Z,4.70
2019-06-26T04:58:00.570Z,5.10
2019-06-26T05:00:27.055Z,5.03
2019-06-26T05:02:53.445Z,6.37
2019-06-26T05:05:19.781Z,4.58
2019-06-26T05:07:46.233Z,4.53
2019-06-26T05:10:13.623Z,5.22
2019-06-26T05:12:39.857Z,4.50
2019-06-26T05:15:07.218Z,5.85
2019-06-26T05:17:33.649Z,4.10
2019-06-26T05:20:00.112Z,4.55
2019-06-26T05:22:27.045Z,5.85
2019-06-26T05:24:53.302Z,5.22
2019-06-26T05:27:19.637Z,5.17
2019-06-26T05:29:46.189Z,5.15
2019-06-26T05:32:12.651Z,6.10
2019-06-26T05:34:38.893Z,5.22
2019-06-26T05:37:05.250Z,5.20
2019-06-26T05:39:31.486Z,4.35
2019-06-26T05:41:57.851Z,5.28
2019-06-26T05:44:24.083Z,5.15
2019-06-26T05:46:50.428Z,6.80
2019-06-26T05:49:16.873Z,5.97
2019-06-26T05:51:43.345Z,5.87
2019-06-26T05:54:09.698Z,6.60
2019-06-26T05:56:36.231Z,6.53
2019-06-26T05:59:02.671Z,5.90
2019-06-26T06:01:29.292Z,6.42
2019-06-26T06:03:55.645Z,6.50
2019-06-26T06:06:22.094Z,8.05
2019-06-26T06:08:48.369Z,6.25
2019-06-26T06:11:14.751Z,6.00
2019-06-26T06:13:41.001Z,6.95
2019-06-26T06:16:07.337Z,5.33
2019-06-26T06:18:33.874Z,7.37
2019-06-26T06:21:00.309Z,5.90
2019-06-26T06:23:26.570Z,9.55
2019-06-26T06:25:52.977Z,5.92
2019-06-26T06:28:19.230Z,7.53
2019-06-26T06:30:45.592Z,6.55
2019-06-26T06:33:11.862Z,11.15
2019-06-26T06:35:38.113Z,7.40
2019-06-26T06:38:04.602Z,6.95
2019-06-26T06:40:31.033Z,6.67
2019-06-26T06:42:57.387Z,5.12
2019-06-26T06:45:24.601Z,6.12
2019-06-26T06:47:50.881Z,5.25
2019-06-26T06:50:17.229Z,4.08
2019-06-26T06:52:43.578Z,5.67
2019-06-26T06:55:10.634Z,5.08
2019-06-26T06:57:37.089Z,5.08
2019-06-26T07:00:07.080Z,6.10
2019-06-26T07:02:33.680Z,5.00
2019-06-26T07:05:00.105Z,5.12
2019-06-26T07:07:26.459Z,5.12
2019-06-26T07:09:52.814Z,4.97
2019-06-26T07:12:20.909Z,5.15
2019-06-26T07:14:47.309Z,4.65
2019-06-26T07:17:20.716Z,7.25
2019-06-26T07:19:41.817Z,4.35
2019-06-26T07:22:08.269Z,3.98
2019-06-26T07:24:34.724Z,4.05
2019-06-26T07:27:01.117Z,4.20
2019-06-26T07:29:27.505Z,4.37
2019-06-26T07:31:53.754Z,4.00
2019-06-26T07:34:20.303Z,6.03
2019-06-26T07:36:46.555Z,4.80
2019-06-26T07:39:12.809Z,5.03
2019-06-26T07:41:39.369Z,5.55
2019-06-26T07:44:05.713Z,5.15
2019-06-26T07:46:32.057Z,4.65
2019-06-26T07:48:58.305Z,4.33
2019-06-26T07:51:24.550Z,5.65
2019-06-26T07:53:51.001Z,4.17
2019-06-26T07:56:17.245Z,4.90
2019-06-26T07:58:43.495Z,6.35
2019-06-26T08:01:09.838Z,4.12
2019-06-26T08:03:36.092Z,5.33
2019-06-26T08:06:02.945Z,4.25
2019-06-26T08:08:29.312Z,5.80
2019-06-26T08:10:55.543Z,5.97
2019-06-26T08:13:21.897Z,5.22
2019-06-26T08:15:48.143Z,6.03
2019-06-26T08:18:14.398Z,6.05
2019-06-26T08:20:55.115Z,6.08
2019-06-26T08:23:09.005Z,6.65
2019-06-26T08:25:35.360Z,6.17
2019-06-26T08:28:01.622Z,6.55
2019-06-26T08:30:28.066Z,7.05
2019-06-26T08:32:54.431Z,6.50
2019-06-26T08:35:20.693Z,7.12
2019-06-26T08:37:46.934Z,6.42
2019-06-26T08:40:13.581Z,5.00
2019-06-26T08:42:40.039Z,7.50
2019-06-26T08:45:07.302Z,9.20
2019-06-26T08:47:34.197Z,6.60
2019-06-26T08:50:00.483Z,8.08
2019-06-26T08:52:26.692Z,6.90
2019-06-26T08:54:52.946Z,6.17
2019-06-26T08:57:19.608Z,5.72
2019-06-26T08:59:46.454Z,5.22
2019-06-26T09:02:12.842Z,4.53
2019-06-26T09:04:39.109Z,4.75
2019-06-26T09:07:05.353Z,5.28
2019-06-26T09:09:31.734Z,6.10
2019-06-26T09:11:58.086Z,5.72
2019-06-26T09:14:24.544Z,4.95
2019-06-26T09:16:50.990Z,5.72
2019-06-26T09:19:17.243Z,5.83
2019-06-26T09:21:43.789Z,6.00
2019-06-26T09:24:09.973Z,5.67
2019-06-26T09:26:36.321Z,5.80
2019-06-26T09:29:02.990Z,6.30
2019-06-26T09:31:29.245Z,6.62
2019-06-26T09:33:55.482Z,4.67
2019-06-26T09:36:21.733Z,4.60
2019-06-26T09:38:47.994Z,5.00
2019-06-26T09:41:14.255Z,4.72
2019-06-26T09:43:40.525Z,5.42
2019-06-26T09:46:07.174Z,4.78
2019-06-26T09:48:33.405Z,4.70
2019-06-26T09:50:59.702Z,5.10
2019-06-26T09:53:26.463Z,5.17
2019-06-26T09:55:52.909Z,5.30
2019-06-26T09:58:19.378Z,4.92
2019-06-26T10:00:45.741Z,7.45
2019-06-26T10:03:12.086Z,5.78
2019-06-26T10:05:39.267Z,6.60
2019-06-26T10:08:05.593Z,5.45
2019-06-26T10:10:31.833Z,6.17
2019-06-26T10:12:58.318Z,5.92
2019-06-26T10:15:24.674Z,5.08
2019-06-26T10:17:51.120Z,6.47
2019-06-26T10:20:17.617Z,6.05
2019-06-26T10:22:43.809Z,5.15
2019-06-26T10:25:11.621Z,6.85
2019-06-26T10:27:38.438Z,7.83
2019-06-26T10:30:05.777Z,5.40
2019-06-26T10:32:32.223Z,4.65
2019-06-26T10:34:58.566Z,6.72
2019-06-26T10:37:25.002Z,5.97
2019-06-26T10:39:52.316Z,5.60
2019-06-26T10:42:19.327Z,5.47
2019-06-26T10:44:45.689Z,5.80
2019-06-26T10:47:12.035Z,6.15
2019-06-26T10:49:38.432Z,6.50
2019-06-26T10:52:04.939Z,6.30
2019-06-26T10:54:31.134Z,6.95
2019-06-26T10:56:57.678Z,6.85
2019-06-26T10:59:24.037Z,7.42
2019-06-26T11:01:50.647Z,6.67
2019-06-26T11:04:17.228Z,6.03
2019-06-26T11:06:43.589Z,6.45
2019-06-26T11:09:10.424Z,7.28
2019-06-26T11:11:36.889Z,8.53
2019-06-26T11:14:04.038Z,6.92
2019-06-26T11:16:30.412Z,7.58
2019-06-26T11:18:56.789Z,8.85
2019-06-26T11:21:23.278Z,9.45
2019-06-26T11:23:49.534Z,6.45
2019-06-26T11:26:15.766Z,5.25
2019-06-26T11:28:42.213Z,5.45
2019-06-26T11:31:08.684Z,5.15
2019-06-26T11:33:34.944Z,5.80
2019-06-26T11:36:01.282Z,6.25
2019-06-26T11:38:27.558Z,6.75
2019-06-26T11:40:53.910Z,7.33
2019-06-26T11:43:20.149Z,7.45
2019-06-26T11:45:46.515Z,7.03
2019-06-26T11:48:12.780Z,10.55
2019-06-26T11:50:39.017Z,10.50
2019-06-26T11:53:05.618Z,8.03
2019-06-26T11:55:31.976Z,8.40
2019-06-26T11:57:58.518Z,7.87
2019-06-26T12:00:26.530Z,7.72
2019-06-26T12:02:52.969Z,7.37
2019-06-26T12:05:19.814Z,8.38
2019-06-26T12:07:46.675Z,8.28
2019-06-26T12:10:13.635Z,9.13
2019-06-26T12:12:40.189Z,8.98
2019-06-26T12:15:07.141Z,8.60
2019-06-26T12:17:33.598Z,9.15
2019-06-26T12:20:16.672Z,8.55
2019-06-26T12:22:28.658Z,8.90
2019-06-26T12:24:54.895Z,8.65
2019-06-26T12:27:21.143Z,13.90
2019-06-26T12:29:47.653Z,9.33
2019-06-26T12:32:13.937Z,7.67
2019-06-26T12:34:40.277Z,9.40
2019-06-26T12:37:06.574Z,14.93
2019-06-26T12:39:32.798Z,10.03
2019-06-26T12:41:59.338Z,10.00
2019-06-26T12:44:26.265Z,9.20
2019-06-26T12:46:52.609Z,9.48
2019-06-26T12:49:19.073Z,9.83
2019-06-26T12:51:45.866Z,9.73
2019-06-26T12:54:12.241Z,10.80
2019-06-26T12:56:38.610Z,9.95
2019-06-26T12:59:05.780Z,10.40
2019-06-26T13:01:32.172Z,11.15
2019-06-26T13:03:58.452Z,10.65
2019-06-26T13:06:25.081Z,10.25
2019-06-26T13:08:51.443Z,11.73
2019-06-26T13:11:17.700Z,9.83
2019-06-26T13:13:58.259Z,10.18
2019-06-26T13:16:12.183Z,9.83
2019-06-26T13:18:38.404Z,10.28
2019-06-26T13:21:05.642Z,12.18
2019-06-26T13:23:31.985Z,11.10
2019-06-26T13:25:58.232Z,11.18
2019-06-26T13:28:24.469Z,11.48
2019-06-26T13:30:53.173Z,11.35
2019-06-26T13:33:19.005Z,13.40
2019-06-26T13:35:45.673Z,11.33
2019-06-26T13:38:12.021Z,11.48
2019-06-26T13:40:40.977Z,19.10
2019-06-26T13:43:06.413Z,12.68
2019-06-26T13:45:32.914Z,11.43
2019-06-26T13:47:59.262Z,12.55
2019-06-26T13:50:25.617Z,11.88
2019-06-26T13:52:52.138Z,13.65
2019-06-26T13:55:18.609Z,10.88
2019-06-26T13:57:45.119Z,10.38
2019-06-26T14:00:12.289Z,10.08
2019-06-26T14:02:38.700Z,10.43
2019-06-26T14:05:07.324Z,10.40
2019-06-26T14:07:33.557Z,12.10
2019-06-26T14:09:59.822Z,8.88
2019-06-26T14:12:26.477Z,9.13
2019-06-26T14:14:57.639Z,12.73
2019-06-26T14:17:20.901Z,10.60
2019-06-26T14:19:47.160Z,11.85
2019-06-26T14:22:13.414Z,10.25
2019-06-26T14:24:39.676Z,12.13
2019-06-26T14:27:05.924Z,11.45
2019-06-26T14:29:32.157Z,11.70
2019-06-26T14:31:58.397Z,11.65
2019-06-26T14:34:27.868Z,14.53
2019-06-26T14:36:53.193Z,12.98
2019-06-26T14:39:19.545Z,13.03
2019-06-26T14:41:46.140Z,12.45
2019-06-26T14:44:12.385Z,14.75
2019-06-26T14:46:38.637Z,11.55
2019-06-26T14:49:05.186Z,12.23
2019-06-26T14:51:42.305Z,13.08
2019-06-26T14:53:59.957Z,12.73
2019-06-26T14:56:26.586Z,12.95
2019-06-26T14:58:53.101Z,12.60
2019-06-26T15:01:19.450Z,11.38
2019-06-26T15:03:45.693Z,12.47
2019-06-26T15:06:16.386Z,12.00
2019-06-26T15:08:39.989Z,11.00
2019-06-26T15:11:06.725Z,12.68
2019-06-26T15:13:33.004Z,11.48
2019-06-26T15:15:59.336Z,13.90
2019-06-26T15:18:25.690Z,11.70
2019-06-26T15:20:52.040Z,12.43
2019-06-26T15:23:18.490Z,13.25
2019-06-26T15:25:45.037Z,12.05
2019-06-26T15:28:11.276Z,11.60
2019-06-26T15:30:37.531Z,11.22
2019-06-26T15:33:04.345Z,12.70
2019-06-26T15:35:32.169Z,15.35
2019-06-26T15:37:58.425Z,14.20
2019-06-26T15:40:24.982Z,12.33
2019-06-26T15:42:51.213Z,11.55
2019-06-26T15:45:20.702Z,12.45
2019-06-26T15:47:45.917Z,11.55
2019-06-26T15:50:14.253Z,11.43
2019-06-26T15:52:40.600Z,12.00
2019-06-26T15:55:07.946Z,12.35
2019-06-26T15:57:34.532Z,13.68
2019-06-26T16:00:01.138Z,11.45
2019-06-26T16:02:27.981Z,12.68
2019-06-26T16:04:54.236Z,11.57
2019-06-26T16:07:20.881Z,10.28
2019-06-26T16:09:47.145Z,11.12
2019-06-26T16:12:13.394Z,12.47
2019-06-26T16:14:39.641Z,12.93
2019-06-26T16:17:07.865Z,12.30
2019-06-26T16:19:34.268Z,11.10
2019-06-26T16:22:00.717Z,12.47
2019-06-26T16:24:30.032Z,7.87
2019-06-26T16:26:55.017Z,9.13
2019-06-26T16:29:21.261Z,6.72
2019-06-26T16:31:47.617Z,6.65
2019-06-26T16:34:13.881Z,8.80
2019-06-26T16:36:40.117Z,6.15
2019-06-26T16:39:07.087Z,6.10
2019-06-26T16:41:34.450Z,5.83
2019-06-26T16:44:00.675Z,6.35
2019-06-26T16:46:27.062Z,5.97
2019-06-26T16:48:53.300Z,5.28
2019-06-26T16:51:19.641Z,5.33
2019-06-26T16:53:45.994Z,6.40
2019-06-26T16:56:12.241Z,5.17
2019-06-26T16:58:38.523Z,5.28
2019-06-26T17:01:05.242Z,5.95
2019-06-26T17:03:31.482Z,5.72
2019-06-26T17:05:57.800Z,5.25
2019-06-26T17:08:24.460Z,5.33
2019-06-26T17:10:51.032Z,4.90
2019-06-26T17:13:17.486Z,6.72
2019-06-26T17:15:44.070Z,7.80
2019-06-26T17:18:10.541Z,7.47
2019-06-26T17:20:36.806Z,6.53
2019-06-26T17:23:06.262Z,7.60
2019-06-26T17:25:32.286Z,7.97
2019-06-26T17:27:58.517Z,8.28
2019-06-26T17:30:25.067Z,8.90
2019-06-26T17:32:51.421Z,8.33
2019-06-26T17:35:17.869Z,8.43
2019-06-26T17:37:44.760Z,9.00
2019-06-26T17:40:11.893Z,9.13
2019-06-26T17:42:38.138Z,7.95
2019-06-26T17:45:07.645Z,9.30
2019-06-26T17:47:33.997Z,8.15
2019-06-26T17:50:00.494Z,6.97
2019-06-26T17:52:27.337Z,6.30
2019-06-26T17:54:53.591Z,6.10
2019-06-26T17:57:19.761Z,5.22
2019-06-26T17:59:46.331Z,5.40
2019-06-26T18:02:12.613Z,5.67
2019-06-26T18:04:38.843Z,5.58
2019-06-26T18:07:05.940Z,5.50
2019-06-26T18:09:32.142Z,5.85
2019-06-26T18:11:58.437Z,7.03
2019-06-26T18:14:24.975Z,5.30
2019-06-26T18:16:51.333Z,6.92
2019-06-26T18:19:17.579Z,5.20
2019-06-26T18:21:44.574Z,5.60
2019-06-26T18:24:11.152Z,5.83
2019-06-26T18:26:37.500Z,6.12
2019-06-26T18:29:03.965Z,8.00
2019-06-26T18:31:30.758Z,7.62
2019-06-26T18:33:57.186Z,8.03
2019-06-26T18:36:24.071Z,9.28
2019-06-26T18:38:50.347Z,9.58
2019-06-26T18:41:18.686Z,9.85
2019-06-26T18:43:45.235Z,10.48
2019-06-26T18:46:11.466Z,9.93
2019-06-26T18:48:37.706Z,9.50
2019-06-26T18:51:04.516Z,10.00
2019-06-26T18:53:30.792Z,10.38
2019-06-26T18:55:57.184Z,9.03
2019-06-26T18:58:23.816Z,8.68
2019-06-26T19:00:51.156Z,8.78
2019-06-26T19:03:17.441Z,8.75
2019-06-26T19:05:43.697Z,9.25
2019-06-26T19:08:10.055Z,8.98
2019-06-26T19:10:36.519Z,9.58
2019-06-26T19:13:03.341Z,10.78
2019-06-26T19:15:29.625Z,10.48
2019-06-26T19:17:55.974Z,9.73
2019-06-26T19:20:22.325Z,10.72
2019-06-26T19:22:48.692Z,10.03
2019-06-26T19:25:15.937Z,10.55
2019-06-26T19:27:42.289Z,10.28
2019-06-26T19:30:10.958Z,11.93
2019-06-26T19:32:37.678Z,9.90
2019-06-26T19:35:18.197Z,9.93
2019-06-26T19:37:33.013Z,10.65
2019-06-26T19:39:59.262Z,10.53
2019-06-26T19:42:26.005Z,9.90
2019-06-26T19:44:52.287Z,10.95
2019-06-26T19:47:18.538Z,11.05
2019-06-26T19:49:45.381Z,9.98
2019-06-26T19:52:11.753Z,10.00
2019-06-26T19:54:38.089Z,9.95
2019-06-26T19:57:04.988Z,10.80
2019-06-26T19:59:31.236Z,11.03
2019-06-26T20:01:57.498Z,13.00
2019-06-26T20:04:24.289Z,13.28
2019-06-26T20:06:50.541Z,12.25
2019-06-26T20:09:16.997Z,12.70
2019-06-26T20:11:43.366Z,12.85
2019-06-26T20:14:09.721Z,12.28
2019-06-26T20:16:35.960Z,11.73
2019-06-26T20:19:02.398Z,11.10
2019-06-26T20:21:28.839Z,11.25
2019-06-26T20:23:55.197Z,10.80
2019-06-26T20:26:21.887Z,12.30
2019-06-26T20:28:48.284Z,12.95
2019-06-26T20:31:14.540Z,12.33
2019-06-26T20:33:41.188Z,12.37
2019-06-26T20:36:07.457Z,12.98
2019-06-26T20:38:33.707Z,12.00
2019-06-26T20:41:00.161Z,12.37
2019-06-26T20:43:26.413Z,12.23
2019-06-26T20:45:52.680Z,12.25
2019-06-26T20:48:18.926Z,13.58
2019-06-26T20:50:45.169Z,12.63
2019-06-26T20:53:11.431Z,12.73
2019-06-26T20:55:38.175Z,13.13
2019-06-26T20:58:04.422Z,12.95
2019-06-26T21:00:30.937Z,13.20
2019-06-26T21:02:57.229Z,12.82
2019-06-26T21:05:23.705Z,11.53
2019-06-26T21:07:49.984Z,12.60
2019-06-26T21:10:17.084Z,11.48
2019-06-26T21:12:43.261Z,12.28
2019-06-26T21:15:09.713Z,12.07
2019-06-26T21:17:36.384Z,12.00
2019-06-26T21:20:06.787Z,12.93
2019-06-26T21:22:33.306Z,11.55
2019-06-26T21:25:13.531Z,12.55
2019-06-26T21:27:27.765Z,12.53
2019-06-26T21:29:54.007Z,12.15
2019-06-26T21:32:20.384Z,12.45
2019-06-26T21:34:46.724Z,12.55
2019-06-26T21:37:12.950Z,13.15
2019-06-26T21:39:39.198Z,12.43
2019-06-26T21:42:05.545Z,13.35
2019-06-26T21:44:31.949Z,13.50
2019-06-26T21:46:58.208Z,12.37
2019-06-26T21:49:24.444Z,13.10
2019-06-26T21:51:50.697Z,13.15
2019-06-26T21:54:17.209Z,12.18
2019-06-26T21:56:43.445Z,12.75
2019-06-26T21:59:09.696Z,13.53
2019-06-26T22:01:36.746Z,13.72
2019-06-26T22:04:05.590Z,13.55
2019-06-26T22:06:31.945Z,13.10
2019-06-26T22:08:58.561Z,13.68
2019-06-26T22:11:24.732Z,14.58
2019-06-26T22:13:51.069Z,14.25
2019-06-26T22:16:17.610Z,12.98
2019-06-26T22:18:44.255Z,14.68
2019-06-26T22:21:10.697Z,16.77
2019-06-26T22:23:36.950Z,15.80
2019-06-26T22:26:03.897Z,17.90
2019-06-26T22:28:30.245Z,16.62
2019-06-26T22:30:56.594Z,17.35
2019-06-26T22:33:22.947Z,17.42
2019-06-26T22:35:49.185Z,17.25
2019-06-26T22:38:15.532Z,17.50
2019-06-26T22:40:41.782Z,17.40
2019-06-26T22:43:08.137Z,16.67
2019-06-26T22:45:34.477Z,17.27
2019-06-26T22:48:01.225Z,17.70
2019-06-26T22:50:27.585Z,16.93
2019-06-26T22:52:54.371Z,17.67
2019-06-26T22:55:20.909Z,19.07
2019-06-26T22:57:47.224Z,20.08
2019-06-26T23:00:15.233Z,17.65
2019-06-26T23:02:41.582Z,16.40
2019-06-26T23:05:08.051Z,18.07
2019-06-26T23:07:34.519Z,16.05
2019-06-26T23:10:00.886Z,15.28
2019-06-26T23:12:27.207Z,14.68
2019-06-26T23:14:53.813Z,12.53
2019-06-26T23:17:19.970Z,12.07
2019-06-26T23:19:46.318Z,12.50
2019-06-26T23:22:12.723Z,10.98
2019-06-26T23:24:39.090Z,10.70
2019-06-26T23:27:05.447Z,10.63
2019-06-26T23:29:32.113Z,10.13
2019-06-26T23:31:58.454Z,9.23
2019-06-26T23:34:25.006Z,8.48
2019-06-26T23:36:51.450Z,7.15
2019-06-26T23:39:17.700Z,6.62
2019-06-26T23:41:43.950Z,6.83
2019-06-26T23:44:10.720Z,6.20
2019-06-26T23:46:36.962Z,6.42
2019-06-26T23:49:03.619Z,6.83
2019-06-26T23:51:29.889Z,7.08
2019-06-26T23:53:56.115Z,5.60
2019-06-26T23:56:22.471Z,6.28
2019-06-26T23:58:49.318Z,6.45
